createdAt,value
2017-09-10T00:00:14.920Z,66.43
2017-09-10T00:02:44.397Z,66.46
2017-09-10T00:05:14.475Z,65.79
2017-09-10T00:07:43.831Z,65.83
2017-09-10T00:10:13.513Z,65.84
2017-09-10T00:12:43.275Z,65.90
2017-09-10T00:15:12.628Z,65.46
2017-09-10T00:17:42.099Z,65.18
2017-09-10T00:20:12.052Z,64.83
2017-09-10T00:22:43.927Z,65.26
2017-09-10T00:25:13.298Z,65.23
2017-09-10T00:27:42.707Z,65.64
2017-09-10T00:30:12.047Z,65.88
2017-09-10T00:32:41.703Z,65.82
2017-09-10T00:35:11.753Z,66.56
2017-09-10T00:37:41.192Z,66.73
2017-09-10T00:40:10.603Z,66.15
2017-09-10T00:42:40.742Z,66.42
2017-09-10T00:45:10.227Z,65.45
2017-09-10T00:47:39.587Z,65.50
2017-09-10T00:50:09.122Z,65.29
2017-09-10T00:52:39.010Z,64.82
2017-09-10T00:55:08.457Z,64.37
2017-09-10T00:57:37.808Z,64.40
2017-09-10T01:00:07.602Z,64.49
2017-09-10T01:02:36.967Z,64.23
2017-09-10T01:05:06.519Z,64.78
2017-09-10T01:07:36.143Z,65.44
2017-09-10T01:10:05.641Z,65.21
2017-09-10T01:12:34.983Z,65.11
2017-09-10T01:15:04.433Z,64.72
2017-09-10T01:17:33.822Z,64.62
2017-09-10T01:20:03.420Z,64.48
2017-09-10T01:22:33.319Z,65.29
2017-09-10T01:25:02.988Z,64.90
2017-09-10T01:27:32.392Z,64.70
2017-09-10T01:30:02.055Z,64.41
2017-09-10T01:32:31.529Z,65.27
2017-09-10T01:35:00.896Z,65.27
2017-09-10T01:37:30.552Z,65.50
2017-09-10T01:40:00.211Z,65.52
2017-09-10T01:42:29.767Z,64.93
2017-09-10T01:44:59.463Z,64.68
2017-09-10T01:47:28.881Z,65.15
2017-09-10T01:49:58.281Z,65.74
2017-09-10T01:52:27.730Z,66.59
2017-09-10T01:54:56.995Z,66.75
2017-09-10T01:57:26.959Z,66.71
2017-09-10T01:59:56.249Z,66.05
2017-09-10T02:02:25.542Z,65.64
2017-09-10T02:04:54.813Z,65.61
2017-09-10T02:07:24.082Z,65.77
2017-09-10T02:09:53.674Z,65.24
2017-09-10T02:12:22.925Z,65.55
2017-09-10T02:14:52.149Z,65.56
2017-09-10T02:17:21.386Z,66.25
2017-09-10T02:19:51.588Z,66.27
2017-09-10T02:22:20.849Z,65.92
2017-09-10T02:24:50.384Z,65.34
2017-09-10T02:27:19.639Z,65.02
2017-09-10T02:29:48.919Z,65.08
2017-09-10T02:32:18.476Z,64.75
2017-09-10T02:34:47.688Z,64.89
2017-09-10T02:37:16.938Z,64.53
2017-09-10T02:39:46.477Z,65.34
2017-09-10T02:42:16.777Z,65.42
2017-09-10T02:44:46.068Z,65.88
2017-09-10T02:47:15.308Z,65.77
2017-09-10T02:49:44.537Z,66.03
2017-09-10T02:52:13.853Z,66.62
2017-09-10T02:54:43.090Z,65.45
2017-09-10T02:57:12.659Z,65.14
2017-09-10T02:59:41.905Z,64.87
2017-09-10T03:02:11.467Z,64.74
2017-09-10T03:04:41.280Z,64.92
2017-09-10T03:07:10.619Z,65.14
2017-09-10T03:09:39.904Z,64.79
2017-09-10T03:12:09.469Z,64.46
2017-09-10T03:14:38.775Z,64.32
2017-09-10T03:17:08.104Z,64.15
2017-09-10T03:19:37.867Z,64.17
2017-09-10T03:22:07.120Z,64.06
2017-09-10T03:24:36.532Z,63.84
2017-09-10T03:27:06.161Z,63.51
2017-09-10T03:29:35.429Z,63.32
2017-09-10T03:32:04.743Z,63.64
2017-09-10T03:34:34.026Z,63.55
2017-09-10T03:37:03.377Z,63.33
2017-09-10T03:39:32.766Z,64.15
2017-09-10T03:42:02.287Z,63.83
2017-09-10T03:44:31.560Z,63.72
2017-09-10T03:47:01.862Z,63.49
2017-09-10T03:49:31.629Z,63.27
2017-09-10T03:52:02.601Z,63.90
2017-09-10T03:54:31.813Z,63.45
2017-09-10T03:57:03.468Z,63.02
2017-09-10T03:59:32.758Z,62.81
2017-09-10T04:02:03.100Z,63.17
2017-09-10T04:04:32.456Z,63.49
2017-09-10T04:07:03.885Z,63.74
2017-09-10T04:09:33.128Z,64.46
2017-09-10T04:12:04.322Z,64.47
2017-09-10T04:14:36.157Z,63.48
2017-09-10T04:17:05.949Z,64.17
2017-09-10T04:19:35.387Z,64.16
2017-09-10T04:22:06.026Z,64.69
2017-09-10T04:24:35.291Z,63.98
2017-09-10T04:27:04.766Z,63.78
2017-09-10T04:29:34.105Z,63.71
2017-09-10T04:32:04.368Z,64.13
2017-09-10T04:34:33.669Z,64.49
2017-09-10T04:37:03.330Z,63.79
2017-09-10T04:39:33.173Z,64.02
2017-09-10T04:42:02.988Z,63.73
2017-09-10T04:44:32.357Z,64.04
2017-09-10T04:47:02.246Z,64.15
2017-09-10T04:49:31.691Z,63.85
2017-09-10T04:52:02.785Z,63.74
2017-09-10T04:54:32.114Z,63.62
2017-09-10T04:57:02.659Z,63.40
2017-09-10T04:59:32.393Z,63.24
2017-09-10T05:02:04.202Z,63.02
2017-09-10T05:04:33.957Z,62.81
2017-09-10T05:07:04.333Z,63.91
2017-09-10T05:09:33.647Z,63.41
2017-09-10T05:12:03.324Z,63.13
2017-09-10T05:14:34.374Z,63.09
2017-09-10T05:17:04.918Z,62.76
2017-09-10T05:19:35.041Z,62.67
2017-09-10T05:22:07.417Z,62.76
2017-09-10T05:24:36.723Z,62.84
2017-09-10T05:27:07.286Z,62.63
2017-09-10T05:29:37.045Z,62.08
2017-09-10T05:32:07.164Z,61.79
2017-09-10T05:34:37.309Z,61.38
2017-09-10T05:37:06.765Z,61.55
2017-09-10T05:39:36.041Z,62.76
2017-09-10T05:42:07.850Z,62.56
2017-09-10T05:44:37.699Z,62.24
2017-09-10T05:47:07.395Z,62.33
2017-09-10T05:49:36.849Z,62.25
2017-09-10T05:52:06.081Z,61.81
2017-09-10T05:54:35.572Z,61.46
2017-09-10T05:57:06.490Z,61.35
2017-09-10T05:59:35.904Z,61.03
2017-09-10T06:02:06.878Z,61.08
2017-09-10T06:04:36.214Z,61.08
2017-09-10T06:07:06.254Z,61.62
2017-09-10T06:09:35.658Z,60.96
2017-09-10T06:12:08.286Z,61.34
2017-09-10T06:14:37.800Z,60.58
2017-09-10T06:17:07.381Z,61.75
2017-09-10T06:19:37.275Z,61.29
2017-09-10T06:22:06.922Z,61.66
2017-09-10T06:24:36.531Z,61.47
2017-09-10T06:27:06.393Z,60.93
2017-09-10T06:29:35.765Z,60.61
2017-09-10T06:32:06.430Z,60.35
2017-09-10T06:34:37.013Z,60.03
2017-09-10T06:37:06.351Z,60.20
2017-09-10T06:39:35.988Z,60.71
2017-09-10T06:42:07.345Z,60.72
2017-09-10T06:44:36.896Z,61.17
2017-09-10T06:47:07.969Z,61.30
2017-09-10T06:49:37.883Z,61.51
2017-09-10T06:52:07.837Z,61.14
2017-09-10T06:54:37.492Z,61.65
2017-09-10T06:57:07.301Z,61.77
2017-09-10T06:59:36.540Z,61.38
2017-09-10T07:02:07.883Z,62.27
2017-09-10T07:04:37.312Z,61.57
2017-09-10T07:07:06.636Z,60.58
2017-09-10T07:09:35.893Z,60.90
2017-09-10T07:12:07.952Z,60.63
2017-09-10T07:14:37.178Z,61.99
2017-09-10T07:17:07.745Z,60.93
2017-09-10T07:19:37.574Z,62.17
2017-09-10T07:22:07.174Z,61.25
2017-09-10T07:24:36.890Z,61.10
2017-09-10T07:27:12.913Z,60.69
2017-09-10T07:29:42.508Z,60.62
2017-09-10T07:32:12.053Z,61.03
2017-09-10T07:34:41.418Z,61.74
2017-09-10T07:37:10.693Z,61.13
2017-09-10T07:39:40.412Z,61.13
2017-09-10T07:42:10.561Z,61.47
2017-09-10T07:44:41.403Z,61.25
2017-09-10T07:47:12.653Z,61.89
2017-09-10T07:49:42.910Z,62.04
2017-09-10T07:52:12.945Z,62.86
2017-09-10T07:54:42.549Z,61.97
2017-09-10T07:57:11.833Z,62.30
2017-09-10T07:59:41.757Z,60.23
2017-09-10T08:02:13.910Z,59.79
2017-09-10T08:04:43.209Z,61.33
2017-09-10T08:07:12.849Z,61.42
2017-09-10T08:09:42.551Z,60.69
2017-09-10T08:12:12.106Z,59.92
2017-09-10T08:14:42.465Z,59.83
2017-09-10T08:17:13.838Z,59.59
2017-09-10T08:19:44.730Z,59.75
2017-09-10T08:22:14.725Z,60.49
2017-09-10T08:24:44.459Z,60.49
2017-09-10T08:27:14.348Z,60.22
2017-09-10T08:29:44.952Z,58.50
2017-09-10T08:32:14.545Z,58.36
2017-09-10T08:34:43.865Z,58.42
2017-09-10T08:37:13.265Z,56.54
2017-09-10T08:39:43.077Z,56.63
2017-09-10T08:42:13.066Z,56.48
2017-09-10T08:44:42.423Z,57.36
2017-09-10T08:47:11.970Z,58.46
2017-09-10T08:49:41.305Z,59.74
2017-09-10T08:52:11.439Z,59.55
2017-09-10T08:54:41.697Z,59.22
2017-09-10T08:57:11.402Z,58.74
2017-09-10T08:59:40.674Z,56.41
2017-09-10T09:02:10.197Z,55.69
2017-09-10T09:04:39.524Z,55.59
2017-09-10T09:07:09.140Z,55.33
2017-09-10T09:09:38.788Z,56.11
2017-09-10T09:12:08.686Z,57.00
2017-09-10T09:14:38.044Z,57.86
2017-09-10T09:17:07.665Z,58.38
2017-09-10T09:19:37.141Z,59.20
2017-09-10T09:22:07.113Z,60.59
2017-09-10T09:24:37.695Z,59.14
2017-09-10T09:27:06.930Z,59.55
2017-09-10T09:29:36.189Z,59.71
2017-09-10T09:32:05.782Z,59.19
2017-09-10T09:34:35.069Z,58.72
2017-09-10T09:37:04.390Z,61.04
2017-09-10T09:39:35.821Z,61.08
2017-09-10T09:42:08.434Z,59.83
2017-09-10T09:44:37.858Z,59.85
2017-09-10T09:47:07.355Z,57.40
2017-09-10T09:49:36.949Z,57.59
2017-09-10T09:52:07.325Z,58.76
2017-09-10T09:54:39.811Z,58.48
2017-09-10T09:57:12.572Z,56.47
2017-09-10T09:59:42.846Z,57.09
2017-09-10T10:02:12.441Z,57.08
2017-09-10T10:04:41.996Z,54.70
2017-09-10T10:07:11.237Z,53.22
2017-09-10T10:09:40.490Z,52.87
2017-09-10T10:12:10.066Z,52.63
2017-09-10T10:14:39.487Z,53.19
2017-09-10T10:17:12.425Z,53.91
2017-09-10T10:19:43.356Z,53.55
2017-09-10T10:22:13.753Z,54.94
2017-09-10T10:24:43.249Z,55.28
2017-09-10T10:27:13.193Z,55.95
2017-09-10T10:29:42.870Z,54.38
2017-09-10T10:32:12.244Z,55.07
2017-09-10T10:34:42.233Z,55.76
2017-09-10T10:37:16.301Z,56.60
2017-09-10T10:39:46.485Z,55.58
2017-09-10T10:42:15.925Z,56.25
2017-09-10T10:44:47.095Z,55.35
2017-09-10T10:47:19.173Z,55.98
2017-09-10T10:49:48.725Z,54.26
2017-09-10T10:52:18.335Z,58.75
2017-09-10T10:54:52.886Z,58.18
2017-09-10T10:57:22.669Z,57.78
2017-09-10T10:59:51.926Z,57.26
2017-09-10T11:02:22.514Z,55.92
2017-09-10T11:04:52.019Z,55.62
2017-09-10T11:07:22.539Z,55.31
2017-09-10T11:09:52.191Z,55.43
2017-09-10T11:12:23.344Z,56.22
2017-09-10T11:14:55.355Z,53.71
2017-09-10T11:17:25.213Z,54.18
2017-09-10T11:19:55.030Z,52.01
2017-09-10T11:22:26.712Z,52.04
2017-09-10T11:24:56.898Z,55.75
2017-09-10T11:27:27.162Z,53.69
2017-09-10T11:29:58.024Z,52.55
2017-09-10T11:32:27.329Z,54.57
2017-09-10T11:34:57.706Z,55.08
2017-09-10T11:37:27.309Z,54.58
2017-09-10T11:39:57.197Z,52.23
2017-09-10T11:42:26.514Z,50.47
2017-09-10T11:44:56.066Z,50.98
2017-09-10T11:47:25.838Z,54.26
2017-09-10T11:49:55.104Z,54.06
2017-09-10T11:52:24.875Z,54.03
2017-09-10T11:54:55.133Z,55.20
2017-09-10T11:57:25.210Z,52.93
2017-09-10T12:02:21.842Z,53.01
2017-09-10T12:04:51.303Z,52.89
2017-09-10T12:07:21.061Z,52.69
2017-09-10T12:09:55.968Z,52.92
2017-09-10T12:12:25.438Z,52.69
2017-09-10T12:14:54.662Z,54.19
2017-09-10T12:17:24.926Z,54.37
2017-09-10T12:19:54.244Z,52.44
2017-09-10T12:22:23.483Z,52.67
2017-09-10T12:24:53.093Z,54.96
2017-09-10T12:27:22.400Z,52.90
2017-09-10T12:29:53.679Z,52.68
2017-09-10T12:32:23.391Z,52.52
2017-09-10T12:34:52.961Z,53.48
2017-09-10T12:37:22.373Z,54.06
2017-09-10T12:39:51.990Z,53.99
2017-09-10T12:42:22.251Z,50.86
2017-09-10T12:44:52.657Z,51.84
2017-09-10T12:47:23.174Z,51.56
2017-09-10T12:49:52.701Z,50.15
2017-09-10T12:52:22.067Z,51.23
2017-09-10T12:54:51.750Z,50.62
2017-09-10T12:57:21.414Z,50.65
2017-09-10T12:59:53.077Z,50.15
2017-09-10T13:02:23.216Z,51.77
2017-09-10T13:04:54.742Z,52.10
2017-09-10T13:07:26.250Z,52.98
2017-09-10T13:09:58.211Z,53.63
2017-09-10T13:12:29.346Z,53.12
2017-09-10T13:14:58.669Z,53.08
2017-09-10T13:17:28.541Z,52.83
2017-09-10T13:19:58.993Z,52.13
2017-09-10T13:22:28.545Z,52.54
2017-09-10T13:24:58.054Z,52.06
2017-09-10T13:27:27.605Z,52.66
2017-09-10T13:30:03.233Z,52.11
2017-09-10T13:32:36.335Z,51.48
2017-09-10T13:35:12.614Z,52.17
2017-09-10T13:37:43.221Z,53.08
2017-09-10T13:40:17.270Z,53.33
2017-09-10T13:42:47.616Z,55.17
2017-09-10T13:45:17.062Z,54.22
2017-09-10T13:47:47.158Z,54.64
2017-09-10T13:50:16.430Z,53.96
2017-09-10T13:52:48.094Z,54.21
2017-09-10T13:55:19.086Z,54.72
2017-09-10T13:57:49.696Z,55.38
2017-09-10T14:00:19.226Z,55.88
2017-09-10T14:02:48.764Z,55.94
2017-09-10T14:05:21.348Z,55.59
2017-09-10T14:07:52.645Z,55.57
2017-09-10T14:10:22.482Z,53.50
2017-09-10T14:12:51.897Z,54.05
2017-09-10T14:15:21.220Z,56.58
2017-09-10T14:17:51.827Z,57.67
2017-09-10T14:20:25.565Z,58.61
2017-09-10T14:22:55.120Z,57.88
2017-09-10T14:25:24.345Z,57.60
2017-09-10T14:27:53.572Z,57.18
2017-09-10T14:30:25.482Z,54.67
2017-09-10T14:32:54.825Z,57.08
2017-09-10T14:35:29.898Z,57.70
2017-09-10T14:38:00.443Z,56.81
2017-09-10T14:40:29.780Z,57.86
2017-09-10T14:43:08.489Z,57.50
2017-09-10T14:45:46.648Z,57.56
2017-09-10T14:48:17.345Z,57.58
2017-09-10T14:50:47.589Z,57.54
2017-09-10T14:53:20.033Z,56.35
2017-09-10T14:55:56.725Z,56.77
2017-09-10T14:58:26.411Z,57.62
2017-09-10T15:00:56.924Z,57.19
2017-09-10T15:03:26.358Z,57.78
2017-09-10T15:05:57.641Z,57.46
2017-09-10T15:08:27.627Z,58.35
2017-09-10T15:10:57.382Z,57.42
2017-09-10T15:13:27.346Z,57.81
2017-09-10T15:15:58.297Z,58.17
2017-09-10T15:18:29.107Z,58.59
2017-09-10T15:21:00.919Z,58.08
2017-09-10T15:23:32.039Z,58.75
2017-09-10T15:26:13.085Z,58.50
2017-09-10T15:28:44.123Z,60.60
2017-09-10T15:31:13.950Z,60.63
2017-09-10T15:33:45.606Z,59.18
2017-09-10T15:36:15.529Z,59.97
2017-09-10T15:38:49.543Z,60.12
2017-09-10T15:41:19.121Z,61.35
2017-09-10T15:43:53.960Z,59.51
2017-09-10T15:46:23.890Z,59.74
2017-09-10T15:48:54.369Z,61.41
2017-09-10T15:51:25.068Z,61.25
2017-09-10T15:53:54.786Z,60.75
2017-09-10T15:57:55.378Z,60.72
2017-09-10T16:00:25.434Z,61.72
2017-09-10T16:02:56.361Z,61.85
2017-09-10T16:05:28.582Z,60.63
2017-09-10T16:12:49.122Z,61.20
2017-09-10T16:15:25.258Z,61.26
2017-09-10T16:17:56.314Z,61.64
2017-09-10T16:20:26.272Z,61.03
2017-09-10T16:22:55.910Z,59.83
2017-09-10T16:25:25.277Z,59.86
2017-09-10T16:27:56.722Z,59.87
2017-09-10T16:30:26.610Z,59.86
2017-09-10T16:32:56.797Z,61.21
2017-09-10T16:35:27.588Z,61.23
2017-09-10T16:37:58.056Z,60.85
2017-09-10T16:40:28.934Z,60.67
2017-09-10T16:42:59.178Z,60.32
2017-09-10T16:45:30.113Z,61.63
2017-09-10T16:48:02.130Z,62.17
2017-09-10T16:50:31.965Z,62.56
2017-09-10T16:53:01.855Z,62.91
2017-09-10T16:55:31.898Z,62.06
2017-09-10T16:58:02.198Z,61.22
2017-09-10T17:00:31.884Z,62.23
2017-09-10T17:03:03.279Z,62.09
2017-09-10T17:05:32.917Z,62.23
2017-09-10T17:08:03.193Z,61.57
2017-09-10T17:10:33.024Z,63.19
2017-09-10T17:13:02.635Z,62.44
2017-09-10T17:15:32.225Z,62.39
2017-09-10T17:18:06.238Z,62.98
2017-09-10T17:20:37.345Z,62.87
2017-09-10T17:23:07.909Z,62.55
2017-09-10T17:25:37.898Z,62.30
2017-09-10T17:28:07.209Z,62.38
2017-09-10T17:30:37.150Z,61.69
2017-09-10T17:33:06.413Z,62.10
2017-09-10T17:35:37.556Z,62.56
2017-09-10T17:38:07.078Z,62.85
2017-09-10T17:40:37.502Z,63.40
2017-09-10T17:43:11.457Z,64.46
2017-09-10T17:45:42.038Z,64.52
2017-09-10T17:48:11.850Z,64.62
2017-09-10T17:50:41.654Z,64.35
2017-09-10T17:53:12.374Z,65.20
2017-09-10T17:55:41.828Z,65.93
2017-09-10T17:58:11.158Z,65.32
2017-09-10T18:00:40.492Z,64.78
2017-09-10T18:03:10.073Z,64.81
2017-09-10T18:05:40.126Z,64.71
2017-09-10T18:08:09.403Z,64.04
2017-09-10T18:10:38.647Z,63.71
2017-09-10T18:13:09.312Z,64.02
2017-09-10T18:15:40.049Z,64.73
2017-09-10T18:18:10.221Z,64.85
2017-09-10T18:20:40.309Z,64.94
2017-09-10T18:23:10.448Z,65.27
2017-09-10T18:25:40.554Z,65.05
2017-09-10T18:28:09.798Z,65.34
2017-09-10T18:30:39.488Z,65.24
2017-09-10T18:33:10.402Z,64.69
2017-09-10T18:35:40.067Z,65.43
2017-09-10T18:38:09.724Z,66.00
2017-09-10T18:40:39.034Z,65.96
2017-09-10T18:43:13.540Z,66.56
2017-09-10T18:45:44.801Z,66.81
2017-09-10T18:48:15.287Z,66.26
2017-09-10T18:50:45.709Z,66.76
2017-09-10T18:53:15.050Z,66.39
2017-09-10T18:55:44.737Z,65.40
2017-09-10T18:58:14.734Z,64.66
2017-09-10T19:00:44.126Z,65.04
2017-09-10T19:03:15.037Z,65.23
2017-09-10T19:05:44.801Z,65.79
2017-09-10T19:08:15.534Z,66.14
2017-09-10T19:10:45.833Z,65.79
2017-09-10T19:13:15.526Z,65.27
2017-09-10T19:15:45.488Z,65.30
2017-09-10T19:18:15.039Z,65.79
2017-09-10T19:20:46.985Z,64.46
2017-09-10T19:23:17.013Z,64.84
2017-09-10T19:25:48.008Z,64.49
2017-09-10T19:28:18.033Z,65.15
2017-09-10T19:30:48.221Z,63.70
2017-09-10T19:33:17.667Z,63.82
2017-09-10T19:35:47.230Z,63.44
2017-09-10T19:38:17.608Z,64.34
2017-09-10T19:40:46.913Z,64.55
2017-09-10T19:43:16.646Z,65.09
2017-09-10T19:45:47.286Z,65.35
2017-09-10T19:48:19.977Z,65.91
2017-09-10T19:50:49.762Z,66.98
2017-09-10T19:53:20.195Z,66.03
2017-09-10T19:55:53.927Z,66.08
2017-09-10T19:58:23.309Z,66.15
2017-09-10T20:00:52.706Z,65.13
2017-09-10T20:03:22.450Z,65.48
2017-09-10T20:05:52.139Z,64.34
2017-09-10T20:08:22.194Z,63.83
2017-09-10T20:10:53.298Z,64.13
2017-09-10T20:13:22.633Z,64.94
2017-09-10T20:15:55.490Z,65.43
2017-09-10T20:18:24.936Z,66.18
2017-09-10T20:20:54.990Z,66.87
2017-09-10T20:23:25.060Z,66.54
2017-09-10T20:25:54.956Z,67.31
2017-09-10T20:28:26.230Z,67.74
2017-09-10T20:30:55.898Z,67.63
2017-09-10T20:33:25.574Z,68.08
2017-09-10T20:35:55.077Z,67.63
2017-09-10T20:38:32.054Z,67.40
2017-09-10T20:41:02.801Z,67.82
2017-09-10T20:43:34.320Z,68.23
2017-09-10T20:46:09.702Z,67.81
2017-09-10T20:48:39.993Z,67.37
2017-09-10T20:51:10.545Z,67.12
2017-09-10T20:53:39.820Z,66.91
2017-09-10T20:56:09.930Z,67.79
2017-09-10T20:58:39.836Z,68.33
2017-09-10T21:01:10.297Z,67.72
2017-09-10T21:03:39.526Z,67.17
2017-09-10T21:06:12.258Z,67.37
2017-09-10T21:08:41.958Z,67.16
2017-09-10T21:11:11.215Z,66.46
2017-09-10T21:13:41.652Z,67.02
2017-09-10T21:16:11.444Z,65.71
2017-09-10T21:18:41.106Z,66.93
2017-09-10T21:21:11.231Z,67.50
2017-09-10T21:23:40.506Z,67.94
2017-09-10T21:26:11.521Z,67.89
2017-09-10T21:28:43.681Z,68.51
2017-09-10T21:31:13.093Z,68.88
2017-09-10T21:33:43.290Z,68.22
2017-09-10T21:36:14.314Z,69.45
2017-09-10T21:38:43.582Z,70.60
2017-09-10T21:41:15.078Z,70.67
2017-09-10T21:43:45.662Z,70.25
2017-09-10T21:46:15.421Z,70.68
2017-09-10T21:48:44.889Z,71.90
2017-09-10T21:51:14.313Z,71.05
2017-09-10T21:53:43.665Z,70.78
2017-09-10T21:56:13.964Z,70.09
2017-09-10T21:58:43.312Z,70.93
2017-09-10T22:01:14.213Z,71.19
2017-09-10T22:03:43.999Z,71.30
2017-09-10T22:06:14.243Z,70.11
2017-09-10T22:08:43.869Z,69.91
2017-09-10T22:11:13.477Z,69.39
2017-09-10T22:13:42.733Z,69.96
2017-09-10T22:16:12.610Z,70.10
2017-09-10T22:18:42.226Z,70.64
2017-09-10T22:21:14.437Z,70.03
2017-09-10T22:23:45.813Z,69.22
2017-09-10T22:26:17.601Z,69.97
2017-09-10T22:28:48.253Z,69.82
2017-09-10T22:31:19.121Z,69.96
2017-09-10T22:33:48.361Z,69.60
2017-09-10T22:36:17.722Z,69.65
2017-09-10T22:38:49.289Z,70.51
2017-09-10T22:41:18.534Z,69.62
2017-09-10T22:43:48.289Z,70.21
2017-09-10T22:46:18.486Z,70.52
2017-09-10T22:48:49.000Z,69.68
2017-09-10T22:51:20.873Z,69.44
2017-09-10T22:53:50.250Z,70.53
2017-09-10T22:56:21.136Z,71.01
2017-09-10T22:58:50.409Z,71.01
2017-09-10T23:01:21.169Z,70.65
2017-09-10T23:03:51.161Z,70.84
2017-09-10T23:06:24.137Z,70.24
2017-09-10T23:08:54.141Z,70.91
2017-09-10T23:11:23.903Z,71.37
2017-09-10T23:13:53.310Z,71.17
2017-09-10T23:16:23.244Z,70.43
2017-09-10T23:18:52.564Z,70.36
2017-09-10T23:21:23.225Z,69.95
2017-09-10T23:23:53.560Z,70.33
2017-09-10T23:26:27.214Z,70.95
2017-09-10T23:28:59.886Z,69.84
2017-09-10T23:31:29.206Z,68.85
2017-09-10T23:34:01.657Z,68.47
2017-09-10T23:36:32.305Z,69.05
2017-09-10T23:39:02.289Z,69.54
2017-09-10T23:41:31.975Z,68.16
2017-09-10T23:44:02.774Z,68.24
2017-09-10T23:46:33.066Z,67.87
2017-09-10T23:49:02.505Z,68.73
2017-09-10T23:51:32.590Z,68.62
2017-09-10T23:54:04.099Z,68.65
2017-09-10T23:56:33.509Z,68.40
2017-09-10T23:59:04.840Z,67.52
